Time;durP1;ratioP1;P1;durP2;ratioP2;P2;SDS_P1;SDS_P2;PMS_P1;PMS_P2;Temp;Humidity;BMP_temperature;BMP_pressure;BME280_temperature;BME280_humidity;BME280_pressure;Samples;Min_cycle;Max_cycle;Signal;HPM_P1;HPM_P2
2021/01/17 00:02:10;;;;;;;;;;;-2.80;99.90;;;;;;5031144;28;19916;-70
2021/01/17 00:04:36;;;;;;;;;;;-2.80;99.90;;;;;;5038619;28;20289;-70
2021/01/17 00:07:02;;;;;;;;;;;-2.70;99.90;;;;;;5042073;28;19971;-70
2021/01/17 00:09:28;;;;;;;;;;;-2.70;99.90;;;;;;5055314;28;19936;-74
2021/01/17 00:11:54;;;;;;;;;;;-2.70;99.90;;;;;;5054968;28;20320;-70
2021/01/17 00:14:20;;;;;;;;;;;-2.60;99.90;;;;;;5056504;28;20423;-70
2021/01/17 00:16:46;;;;;;;;;;;-2.70;99.90;;;;;;5054678;28;19925;-70
2021/01/17 00:19:11;;;;;;;;;;;-2.60;99.90;;;;;;5055994;28;20020;-70
2021/01/17 00:21:44;;;;;;;;;;;-2.70;99.90;;;;;;5056488;28;19917;-70
2021/01/17 00:24:10;;;;;;;;;;;-2.70;99.90;;;;;;5054921;28;19913;-69
2021/01/17 00:26:36;;;;;;;;;;;-2.70;99.90;;;;;;5056466;28;19936;-70
2021/01/17 00:29:02;;;;;;;;;;;-2.80;99.90;;;;;;5055940;28;20388;-69
2021/01/17 00:31:32;;;;;;;;;;;-2.80;99.90;;;;;;5056155;28;19908;-69
2021/01/17 00:33:58;;;;;;;;;;;-2.90;99.90;;;;;;5055961;28;19905;-70
2021/01/17 00:36:24;;;;;;;;;;;-2.90;99.90;;;;;;5056325;28;20388;-70
2021/01/17 00:38:50;;;;;;;;;;;-2.90;99.90;;;;;;5054841;28;19929;-70
2021/01/17 00:41:16;;;;;;;;;;;-2.90;99.90;;;;;;5055905;28;19916;-70
2021/01/17 00:43:41;;;;;;;;;;;-2.90;99.90;;;;;;5056016;28;19913;-70
2021/01/17 00:46:07;;;;;;;;;;;-2.90;99.90;;;;;;5054802;28;19919;-70
2021/01/17 00:48:33;;;;;;;;;;;-2.90;99.90;;;;;;5053904;28;19938;-70
2021/01/17 00:50:59;;;;;;;;;;;-2.90;99.90;;;;;;5052937;28;20270;-70
2021/01/17 00:53:25;;;;;;;;;;;-2.90;99.90;;;;;;5055442;28;19927;-69
2021/01/17 00:55:51;;;;;;;;;;;-2.90;99.90;;;;;;5055752;28;19909;-70
2021/01/17 00:58:17;;;;;;;;;;;-2.90;99.90;;;;;;5056018;28;19917;-70
2021/01/17 01:00:43;;;;;;;;;;;-2.90;99.90;;;;;;5055831;28;20019;-69
2021/01/17 01:03:09;;;;;;;;;;;-2.90;99.90;;;;;;5054991;28;19909;-69
2021/01/17 01:05:35;;;;;;;;;;;-2.90;99.90;;;;;;5055004;28;19908;-69
2021/01/17 01:08:05;;;;;;;;;;;-2.90;99.90;;;;;;5055214;28;19917;-69
2021/01/17 01:10:31;;;;;;;;;;;-2.90;99.90;;;;;;5055352;28;19908;-69
2021/01/17 01:12:57;;;;;;;;;;;-2.80;99.90;;;;;;5054873;28;20163;-69
2021/01/17 01:15:23;;;;;;;;;;;-2.80;99.90;;;;;;5055059;28;19913;-69
2021/01/17 01:17:49;;;;;;;;;;;-2.80;99.90;;;;;;5053918;28;19924;-69
2021/01/17 01:20:15;;;;;;;;;;;-2.80;99.90;;;;;;5054532;28;19948;-69
2021/01/17 01:22:41;;;;;;;;;;;-2.80;99.90;;;;;;5054921;28;19991;-69
2021/01/17 01:25:08;;;;;;;;;;;-2.80;99.90;;;;;;5054652;28;19916;-69
2021/01/17 01:27:34;;;;;;;;;;;-2.80;99.90;;;;;;5053139;28;19909;-69
2021/01/17 01:30:00;;;;;;;;;;;-2.70;99.90;;;;;;5054721;28;19920;-69
2021/01/17 01:32:26;;;;;;;;;;;-2.70;99.90;;;;;;5053368;28;19958;-69
2021/01/17 01:34:51;;;;;;;;;;;-2.70;99.90;;;;;;5054759;28;19920;-70
2021/01/17 01:37:17;;;;;;;;;;;-2.70;99.90;;;;;;5054549;28;19923;-69
2021/01/17 01:39:43;;;;;;;;;;;-2.70;99.90;;;;;;5054723;28;19924;-69
2021/01/17 01:42:09;;;;;;;;;;;-2.70;99.90;;;;;;5052864;28;19952;-69
2021/01/17 01:44:35;;;;;;;;;;;-2.70;99.90;;;;;;5054579;28;19919;-69
2021/01/17 01:47:02;;;;;;;;;;;-2.70;99.90;;;;;;5054297;28;19913;-70
2021/01/17 01:49:28;;;;;;;;;;;-2.70;99.90;;;;;;5053668;28;19912;-69
2021/01/17 01:51:56;;;;;;;;;;;-2.70;99.90;;;;;;5054640;28;19909;-69
2021/01/17 01:54:22;;;;;;;;;;;-2.70;99.90;;;;;;5054332;28;19920;-69
2021/01/17 01:56:50;;;;;;;;;;;-2.70;99.90;;;;;;5054066;28;19917;-70
2021/01/17 01:59:16;;;;;;;;;;;-2.70;99.90;;;;;;5052588;28;19913;-70
2021/01/17 02:01:42;;;;;;;;;;;-2.70;99.90;;;;;;5051442;28;20328;-70
2021/01/17 02:04:09;;;;;;;;;;;-2.70;99.90;;;;;;5053481;28;20407;-69
2021/01/17 02:06:35;;;;;;;;;;;-2.70;99.90;;;;;;5054520;28;20281;-70
2021/01/17 02:09:19;;;;;;;;;;;-2.60;99.90;;;;;;5053426;28;19909;-70
2021/01/17 02:12:00;;;;;;;;;;;-2.60;99.90;;;;;;5053782;28;19916;-69
2021/01/17 02:14:40;;;;;;;;;;;-2.60;99.90;;;;;;5053949;28;20381;-69
2021/01/17 02:17:09;;;;;;;;;;;-2.60;99.90;;;;;;5046566;28;19916;-70
2021/01/17 02:19:36;;;;;;;;;;;-2.50;99.90;;;;;;5052671;28;20262;-70
2021/01/17 02:22:02;;;;;;;;;;;-2.50;99.90;;;;;;5053637;28;19915;-69
2021/01/17 02:24:49;;;;;;;;;;;-2.50;99.90;;;;;;5053806;28;19917;-69
2021/01/17 02:27:15;;;;;;;;;;;-2.50;99.90;;;;;;5052698;28;19916;-68
2021/01/17 02:29:41;;;;;;;;;;;-2.50;99.90;;;;;;5052675;28;19919;-69
2021/01/17 02:32:07;;;;;;;;;;;-2.50;99.90;;;;;;5052118;28;19908;-70
2021/01/17 02:34:33;;;;;;;;;;;-2.50;99.90;;;;;;5052635;28;19916;-70
2021/01/17 02:37:04;;;;;;;;;;;-2.50;99.90;;;;;;5052239;28;19944;-70
2021/01/17 02:39:48;;;;;;;;;;;-2.50;99.90;;;;;;5052719;28;19917;-69
2021/01/17 02:42:14;;;;;;;;;;;-2.50;99.90;;;;;;5053278;28;20369;-70
2021/01/17 02:44:40;;;;;;;;;;;-2.40;99.90;;;;;;5053759;28;19974;-69
2021/01/17 02:47:06;;;;;;;;;;;-2.40;99.90;;;;;;5051853;28;20327;-69
2021/01/17 02:49:32;;;;;;;;;;;-2.40;99.90;;;;;;5052421;28;20378;-69
2021/01/17 02:52:04;;;;;;;;;;;-2.40;99.90;;;;;;5052589;28;19920;-70
2021/01/17 02:54:34;;;;;;;;;;;-2.40;99.90;;;;;;5053448;28;19913;-69
2021/01/17 02:57:01;;;;;;;;;;;-2.30;99.90;;;;;;5051764;28;19916;-70
2021/01/17 02:59:27;;;;;;;;;;;-2.40;99.90;;;;;;5052969;28;19924;-69
2021/01/17 03:01:53;;;;;;;;;;;-2.30;99.90;;;;;;5051703;28;19923;-69
2021/01/17 03:04:38;;;;;;;;;;;-2.30;99.90;;;;;;5051400;28;19909;-69
2021/01/17 03:07:05;;;;;;;;;;;-2.30;99.90;;;;;;5052956;28;19917;-69
2021/01/17 03:09:31;;;;;;;;;;;-2.30;99.90;;;;;;5051483;28;19913;-69
2021/01/17 03:12:01;;;;;;;;;;;-2.30;99.90;;;;;;5052038;28;19909;-69
2021/01/17 03:14:28;;;;;;;;;;;-2.30;99.90;;;;;;5052830;28;19916;-70
2021/01/17 03:16:53;;;;;;;;;;;-2.20;99.90;;;;;;5052883;28;19912;-69
2021/01/17 03:19:19;;;;;;;;;;;-2.20;99.90;;;;;;5050990;28;19924;-69
2021/01/17 03:21:45;;;;;;;;;;;-2.20;99.90;;;;;;5047612;28;19917;-69
2021/01/17 03:24:11;;;;;;;;;;;-2.20;99.90;;;;;;5052002;28;19916;-70
2021/01/17 03:26:37;;;;;;;;;;;-2.20;99.90;;;;;;5053255;28;19912;-69
2021/01/17 03:29:03;;;;;;;;;;;-2.20;99.90;;;;;;5052857;28;19966;-69
2021/01/17 03:31:29;;;;;;;;;;;-2.10;99.90;;;;;;5052828;28;19912;-69
2021/01/17 03:33:55;;;;;;;;;;;-2.10;99.90;;;;;;5052604;28;19925;-70
2021/01/17 03:36:21;;;;;;;;;;;-2.10;99.90;;;;;;5052484;28;19913;-69
2021/01/17 03:38:47;;;;;;;;;;;-2.10;99.90;;;;;;5050666;28;19921;-69
2021/01/17 03:41:13;;;;;;;;;;;-2.10;99.90;;;;;;5051974;28;19912;-69
2021/01/17 03:43:39;;;;;;;;;;;-2.10;99.90;;;;;;5052288;28;19912;-69
2021/01/17 03:46:05;;;;;;;;;;;-2.10;99.90;;;;;;5052071;28;19913;-70
2021/01/17 03:48:30;;;;;;;;;;;-2.00;99.90;;;;;;5052635;28;19913;-69
2021/01/17 03:50:56;;;;;;;;;;;-1.90;99.90;;;;;;5052559;28;19966;-69
2021/01/17 03:53:22;;;;;;;;;;;-1.90;99.90;;;;;;5051411;28;19904;-69
2021/01/17 03:55:48;;;;;;;;;;;-1.90;99.90;;;;;;5051649;28;19924;-69
2021/01/17 03:58:14;;;;;;;;;;;-1.80;99.90;;;;;;5052157;28;19915;-70
2021/01/17 04:00:40;;;;;;;;;;;-1.80;99.90;;;;;;5052382;28;20358;-70
2021/01/17 04:03:06;;;;;;;;;;;-1.80;99.90;;;;;;5051785;28;19913;-70
2021/01/17 04:05:32;;;;;;;;;;;-1.80;99.90;;;;;;5051933;28;19909;-69
2021/01/17 04:07:58;;;;;;;;;;;-1.80;99.90;;;;;;5052505;28;19917;-69
2021/01/17 04:10:24;;;;;;;;;;;-1.80;99.90;;;;;;5052239;28;19920;-69
2021/01/17 04:12:50;;;;;;;;;;;-1.80;99.90;;;;;;5052008;28;19913;-69
2021/01/17 04:15:16;;;;;;;;;;;-1.80;99.90;;;;;;5050787;28;19921;-69
2021/01/17 04:17:42;;;;;;;;;;;-1.80;99.90;;;;;;5051156;28;19908;-69
2021/01/17 04:20:08;;;;;;;;;;;-1.70;99.90;;;;;;5051488;28;19928;-70
2021/01/17 04:22:37;;;;;;;;;;;-1.70;99.90;;;;;;5050953;28;19915;-69
2021/01/17 04:25:04;;;;;;;;;;;-1.70;99.90;;;;;;5050607;28;20380;-69
2021/01/17 04:27:30;;;;;;;;;;;-1.70;99.90;;;;;;5051978;28;19908;-69
2021/01/17 04:29:56;;;;;;;;;;;-1.70;99.90;;;;;;5052242;28;19944;-69
2021/01/17 04:32:21;;;;;;;;;;;-1.70;99.90;;;;;;5051715;28;20270;-69
2021/01/17 04:34:47;;;;;;;;;;;-1.70;99.90;;;;;;5052289;28;20366;-69
2021/01/17 04:37:14;;;;;;;;;;;-1.60;99.90;;;;;;5051651;28;20015;-68
2021/01/17 04:39:40;;;;;;;;;;;-1.70;99.90;;;;;;5051821;28;20456;-69
2021/01/17 04:42:07;;;;;;;;;;;-1.60;99.90;;;;;;5051742;28;19916;-68
2021/01/17 04:44:34;;;;;;;;;;;-1.60;99.90;;;;;;5051665;28;19909;-69
2021/01/17 04:47:01;;;;;;;;;;;-1.70;99.90;;;;;;5050443;28;19916;-69
2021/01/17 04:49:27;;;;;;;;;;;-1.70;99.90;;;;;;5051904;28;19908;-69
2021/01/17 04:51:53;;;;;;;;;;;-1.70;99.90;;;;;;5053273;28;19908;-69
2021/01/17 04:54:19;;;;;;;;;;;-1.70;99.90;;;;;;5054263;28;19917;-69
2021/01/17 04:56:49;;;;;;;;;;;-1.70;99.90;;;;;;5055023;28;19916;-69
2021/01/17 04:59:15;;;;;;;;;;;-1.70;99.90;;;;;;5054182;28;19917;-70
2021/01/17 05:01:48;;;;;;;;;;;-1.60;99.90;;;;;;5053829;28;19909;-69
2021/01/17 05:04:26;;;;;;;;;;;-1.60;99.90;;;;;;5054124;28;19909;-69
2021/01/17 05:06:56;;;;;;;;;;;-1.60;99.90;;;;;;5055232;28;19916;-69
2021/01/17 05:09:22;;;;;;;;;;;-1.60;99.90;;;;;;5053976;28;19916;-69
2021/01/17 05:11:49;;;;;;;;;;;-1.60;99.90;;;;;;5054328;28;19920;-69
2021/01/17 05:14:15;;;;;;;;;;;-1.60;99.90;;;;;;5053869;28;19916;-69
2021/01/17 05:16:42;;;;;;;;;;;-1.60;99.90;;;;;;5055133;28;20308;-69
2021/01/17 05:19:14;;;;;;;;;;;-1.60;99.90;;;;;;5054969;28;20384;-69
2021/01/17 05:21:44;;;;;;;;;;;-1.60;99.90;;;;;;5053786;28;19909;-69
2021/01/17 05:24:11;;;;;;;;;;;-1.60;99.90;;;;;;5053590;28;19920;-69
2021/01/17 05:26:38;;;;;;;;;;;-1.60;99.90;;;;;;5055035;28;20266;-69
2021/01/17 05:29:04;;;;;;;;;;;-1.60;99.90;;;;;;5053655;28;19924;-69
2021/01/17 05:31:30;;;;;;;;;;;-1.60;99.90;;;;;;5054555;28;19916;-69
2021/01/17 05:33:58;;;;;;;;;;;-1.60;99.90;;;;;;5053526;28;19978;-69
2021/01/17 05:36:23;;;;;;;;;;;-1.60;99.90;;;;;;5054544;28;19913;-69
2021/01/17 05:39:05;;;;;;;;;;;-1.60;99.90;;;;;;5054259;28;19971;-69
2021/01/17 05:41:31;;;;;;;;;;;-1.60;99.90;;;;;;5054571;28;19924;-69
2021/01/17 05:43:57;;;;;;;;;;;-1.60;99.90;;;;;;5054471;28;19913;-69
2021/01/17 05:46:23;;;;;;;;;;;-1.60;99.90;;;;;;5054092;28;19970;-69
2021/01/17 05:48:49;;;;;;;;;;;-1.60;99.90;;;;;;5054876;28;19917;-69
2021/01/17 05:51:27;;;;;;;;;;;-1.60;99.90;;;;;;5054377;28;19999;-69
2021/01/17 05:53:56;;;;;;;;;;;-1.60;99.90;;;;;;5054161;28;19912;-69
2021/01/17 05:56:22;;;;;;;;;;;-1.60;99.90;;;;;;5053179;28;19909;-69
2021/01/17 05:58:48;;;;;;;;;;;-1.60;99.90;;;;;;5052577;28;20405;-69
2021/01/17 06:01:14;;;;;;;;;;;-1.60;99.90;;;;;;5054524;28;19908;-69
2021/01/17 06:03:47;;;;;;;;;;;-1.60;99.90;;;;;;5053141;28;19904;-69
2021/01/17 06:06:13;;;;;;;;;;;-1.60;99.90;;;;;;5053726;28;19928;-69
2021/01/17 06:08:39;;;;;;;;;;;-1.50;99.90;;;;;;5054423;28;19912;-69
2021/01/17 06:11:08;;;;;;;;;;;-1.50;99.90;;;;;;5052798;28;20269;-69
2021/01/17 06:13:35;;;;;;;;;;;-1.50;99.90;;;;;;5052905;28;19909;-69
2021/01/17 06:16:01;;;;;;;;;;;-1.50;99.90;;;;;;5054250;28;20301;-70
2021/01/17 06:18:27;;;;;;;;;;;-1.50;99.90;;;;;;5053667;28;19912;-69
2021/01/17 06:20:57;;;;;;;;;;;-1.50;99.90;;;;;;5036195;28;19924;-69
2021/01/17 06:23:23;;;;;;;;;;;-1.50;99.90;;;;;;5052008;28;19904;-70
2021/01/17 06:26:02;;;;;;;;;;;-1.50;99.90;;;;;;5053699;28;19939;-69
2021/01/17 06:28:48;;;;;;;;;;;-1.50;99.90;;;;;;5053323;28;19924;-70
2021/01/17 06:31:14;;;;;;;;;;;-1.50;99.90;;;;;;5053293;28;19908;-69
2021/01/17 06:33:40;;;;;;;;;;;-1.50;99.90;;;;;;5051969;28;19916;-69
2021/01/17 06:36:16;;;;;;;;;;;-1.50;99.90;;;;;;5053075;28;20349;-69
2021/01/17 06:38:42;;;;;;;;;;;-1.40;99.90;;;;;;5053410;28;19908;-69
2021/01/17 06:41:08;;;;;;;;;;;-1.40;99.90;;;;;;5053824;28;19924;-69
2021/01/17 06:43:38;;;;;;;;;;;-1.50;99.90;;;;;;5053404;28;19912;-69
2021/01/17 06:46:04;;;;;;;;;;;-1.50;99.90;;;;;;5053187;28;19908;-69
2021/01/17 06:48:30;;;;;;;;;;;-1.50;99.90;;;;;;5053353;28;19916;-69
2021/01/17 06:50:56;;;;;;;;;;;-1.50;99.90;;;;;;5053368;28;19967;-69
2021/01/17 06:53:23;;;;;;;;;;;-1.50;99.90;;;;;;5051779;28;19932;-69
2021/01/17 06:55:49;;;;;;;;;;;-1.50;99.90;;;;;;5053469;28;19909;-69
2021/01/17 06:58:16;;;;;;;;;;;-1.40;99.90;;;;;;5053037;28;19912;-69
2021/01/17 07:00:44;;;;;;;;;;;-1.40;99.90;;;;;;5051886;28;19916;-69
2021/01/17 07:03:14;;;;;;;;;;;-1.40;99.90;;;;;;5053459;28;19915;-69
2021/01/17 07:05:44;;;;;;;;;;;-1.40;99.90;;;;;;5053915;28;19909;-69
2021/01/17 07:08:19;;;;;;;;;;;-1.40;99.90;;;;;;5052223;28;19931;-69
2021/01/17 07:10:45;;;;;;;;;;;-1.30;99.90;;;;;;5053036;28;19915;-69
2021/01/17 07:13:13;;;;;;;;;;;-1.30;99.90;;;;;;5052077;28;19909;-69
2021/01/17 07:15:40;;;;;;;;;;;-1.30;99.90;;;;;;5052886;28;19912;-69
2021/01/17 07:18:06;;;;;;;;;;;-1.30;99.90;;;;;;5052939;28;20297;-69
2021/01/17 07:20:33;;;;;;;;;;;-1.30;99.90;;;;;;5051374;28;19917;-68
2021/01/17 07:23:00;;;;;;;;;;;-1.20;99.90;;;;;;5052912;28;19912;-69
2021/01/17 07:25:26;;;;;;;;;;;-1.20;99.90;;;;;;5052950;28;19920;-69
2021/01/17 07:27:52;;;;;;;;;;;-1.20;99.90;;;;;;5052395;28;20270;-69
2021/01/17 07:30:18;;;;;;;;;;;-1.20;99.90;;;;;;5051120;28;19909;-68
2021/01/17 07:32:52;;;;;;;;;;;-1.20;99.90;;;;;;5051220;28;19909;-69
2021/01/17 07:35:18;;;;;;;;;;;-1.30;99.90;;;;;;5052561;28;19909;-68
2021/01/17 07:37:44;;;;;;;;;;;-1.20;99.90;;;;;;5051671;28;19950;-68
2021/01/17 07:40:10;;;;;;;;;;;-1.20;99.90;;;;;;5050744;28;19916;-69
2021/01/17 07:42:37;;;;;;;;;;;-1.20;99.90;;;;;;5052288;28;20262;-68
2021/01/17 07:45:16;;;;;;;;;;;-1.20;99.90;;;;;;5052293;28;19919;-68
2021/01/17 07:47:42;;;;;;;;;;;-1.30;99.90;;;;;;5052327;28;19916;-68
2021/01/17 07:50:08;;;;;;;;;;;-1.30;99.90;;;;;;5052297;28;19912;-69
2021/01/17 07:52:36;;;;;;;;;;;-1.30;99.90;;;;;;5051733;28;19916;-69
2021/01/17 07:55:03;;;;;;;;;;;-1.30;99.90;;;;;;5051683;28;19966;-68
2021/01/17 07:57:29;;;;;;;;;;;-1.20;99.90;;;;;;5051471;28;19928;-68
2021/01/17 07:59:55;;;;;;;;;;;-1.30;99.90;;;;;;5052473;28;20386;-68
2021/01/17 08:02:24;;;;;;;;;;;-1.20;99.90;;;;;;5052415;28;19932;-68
2021/01/17 08:04:50;;;;;;;;;;;-1.20;99.90;;;;;;5052321;28;19912;-69
2021/01/17 08:07:29;;;;;;;;;;;-1.20;99.90;;;;;;5050418;28;19916;-67
2021/01/17 08:09:55;;;;;;;;;;;-1.20;99.90;;;;;;5052303;28;19905;-67
2021/01/17 08:12:31;;;;;;;;;;;-1.20;99.90;;;;;;5051448;28;19911;-67
2021/01/17 08:15:13;;;;;;;;;;;-1.20;99.90;;;;;;5050896;28;19909;-66
2021/01/17 08:17:39;;;;;;;;;;;-1.20;99.90;;;;;;5038231;28;19905;-68
2021/01/17 08:20:05;;;;;;;;;;;-1.10;99.90;;;;;;5032795;28;20286;-68
2021/01/17 08:22:31;;;;;;;;;;;-1.10;99.90;;;;;;5044917;28;19928;-68
2021/01/17 08:24:57;;;;;;;;;;;-1.10;99.90;;;;;;5044018;28;19917;-68
2021/01/17 08:27:36;;;;;;;;;;;-1.20;99.90;;;;;;5055755;28;19904;-68
2021/01/17 08:30:10;;;;;;;;;;;-1.20;99.90;;;;;;5038364;28;19924;-67
2021/01/17 08:32:37;;;;;;;;;;;-1.10;99.90;;;;;;5055780;28;19912;-68
2021/01/17 08:35:18;;;;;;;;;;;-1.20;99.90;;;;;;5056436;28;19911;-68
2021/01/17 08:37:44;;;;;;;;;;;-1.10;99.90;;;;;;5056375;28;19904;-68
2021/01/17 08:40:10;;;;;;;;;;;-1.10;99.90;;;;;;5055283;28;19916;-68
2021/01/17 08:42:37;;;;;;;;;;;-1.10;99.90;;;;;;5056105;28;19906;-68
2021/01/17 08:45:04;;;;;;;;;;;-1.10;99.90;;;;;;5056311;28;19911;-69
2021/01/17 08:47:33;;;;;;;;;;;-1.10;99.90;;;;;;5054634;28;19913;-68
2021/01/17 08:49:59;;;;;;;;;;;-1.10;99.90;;;;;;5055029;28;19912;-68
2021/01/17 08:52:30;;;;;;;;;;;-1.10;99.90;;;;;;5055861;28;20281;-68
2021/01/17 08:54:56;;;;;;;;;;;-1.10;99.90;;;;;;5055769;28;19913;-68
2021/01/17 08:57:40;;;;;;;;;;;-1.00;99.90;;;;;;5055644;28;20285;-68
2021/01/17 09:00:08;;;;;;;;;;;-1.00;99.90;;;;;;5056019;28;19919;-68
2021/01/17 09:02:33;;;;;;;;;;;-1.10;99.90;;;;;;5055294;28;20254;-68
2021/01/17 09:04:59;;;;;;;;;;;-1.00;99.90;;;;;;5055811;28;19919;-68
2021/01/17 09:07:34;;;;;;;;;;;-1.00;99.90;;;;;;5055704;28;19916;-68
2021/01/17 09:10:04;;;;;;;;;;;-1.00;99.90;;;;;;5054666;28;19919;-68
2021/01/17 09:12:30;;;;;;;;;;;-1.00;99.90;;;;;;5055502;28;20362;-68
2021/01/17 09:14:56;;;;;;;;;;;-1.00;99.90;;;;;;5054578;28;19905;-68
2021/01/17 09:17:22;;;;;;;;;;;-1.00;99.90;;;;;;5054014;28;19908;-68
2021/01/17 09:19:48;;;;;;;;;;;-0.90;99.90;;;;;;5054320;28;19915;-68
2021/01/17 09:22:14;;;;;;;;;;;-0.90;99.90;;;;;;5054446;28;19904;-68
2021/01/17 09:24:40;;;;;;;;;;;-0.90;99.90;;;;;;5054010;28;20376;-68
2021/01/17 09:27:07;;;;;;;;;;;-0.90;99.90;;;;;;5056227;28;19909;-69
2021/01/17 09:29:36;;;;;;;;;;;-0.90;99.90;;;;;;5054015;28;19917;-68
2021/01/17 09:32:03;;;;;;;;;;;-0.90;99.90;;;;;;5055371;28;19905;-69
2021/01/17 09:34:30;;;;;;;;;;;-0.90;99.90;;;;;;5055301;28;19905;-68
2021/01/17 09:36:56;;;;;;;;;;;-0.90;99.90;;;;;;5054391;28;20369;-68
2021/01/17 09:39:29;;;;;;;;;;;-0.90;99.90;;;;;;5054608;28;19908;-68
2021/01/17 09:41:55;;;;;;;;;;;-0.80;99.90;;;;;;5055344;28;19905;-68
2021/01/17 09:44:21;;;;;;;;;;;-0.80;99.90;;;;;;5054494;28;19908;-69
2021/01/17 09:46:47;;;;;;;;;;;-0.80;99.90;;;;;;5055234;28;19909;-68
2021/01/17 09:49:13;;;;;;;;;;;-0.80;99.90;;;;;;5054606;28;20352;-67
2021/01/17 09:51:44;;;;;;;;;;;-0.80;99.90;;;;;;5054819;28;20273;-68
2021/01/17 09:54:10;;;;;;;;;;;-0.80;99.90;;;;;;5053724;28;19921;-68
2021/01/17 09:56:38;;;;;;;;;;;-0.80;99.90;;;;;;5054757;28;19916;-68
2021/01/17 09:59:05;;;;;;;;;;;-0.70;99.90;;;;;;5055321;28;20242;-68
2021/01/17 10:01:30;;;;;;;;;;;-0.70;99.90;;;;;;5053033;28;20289;-70
2021/01/17 10:03:56;;;;;;;;;;;-0.70;99.90;;;;;;5052978;28;19912;-69
2021/01/17 10:06:22;;;;;;;;;;;-0.60;99.90;;;;;;5063373;28;19912;-70
2021/01/17 10:08:48;;;;;;;;;;;-0.60;99.90;;;;;;5036590;28;19916;-70
2021/01/17 10:11:14;;;;;;;;;;;-0.60;99.90;;;;;;5054562;28;19904;-70
2021/01/17 10:13:49;;;;;;;;;;;-0.60;99.90;;;;;;5054924;28;19912;-70
2021/01/17 10:16:22;;;;;;;;;;;-0.60;99.90;;;;;;5053172;28;19913;-70
2021/01/17 10:18:48;;;;;;;;;;;-0.60;99.90;;;;;;5053886;28;19908;-69
2021/01/17 10:21:15;;;;;;;;;;;-0.50;99.90;;;;;;5054168;28;19927;-70
2021/01/17 10:23:41;;;;;;;;;;;-0.50;99.90;;;;;;5052524;28;19913;-69
2021/01/17 10:26:07;;;;;;;;;;;-0.50;99.90;;;;;;5053108;28;19938;-70
2021/01/17 10:28:33;;;;;;;;;;;-0.50;99.90;;;;;;5052309;28;19916;-70
2021/01/17 10:30:59;;;;;;;;;;;-0.50;99.90;;;;;;5052577;28;19915;-70
2021/01/17 10:33:28;;;;;;;;;;;-0.40;99.90;;;;;;5052177;28;19909;-69
2021/01/17 10:35:54;;;;;;;;;;;-0.40;99.90;;;;;;5054327;28;19911;-70
2021/01/17 10:38:20;;;;;;;;;;;-0.40;99.90;;;;;;5054325;28;19913;-70
2021/01/17 10:40:46;;;;;;;;;;;-0.40;99.90;;;;;;5053391;28;19920;-70
2021/01/17 10:43:13;;;;;;;;;;;-0.40;99.90;;;;;;5051740;28;19908;-70
2021/01/17 10:45:39;;;;;;;;;;;-0.40;99.90;;;;;;5034904;28;19983;-70
2021/01/17 10:48:12;;;;;;;;;;;-0.30;99.90;;;;;;5034828;28;19912;-70
2021/01/17 10:50:42;;;;;;;;;;;-0.30;99.90;;;;;;5059615;28;19909;-70
2021/01/17 10:53:18;;;;;;;;;;;-0.30;99.90;;;;;;5052035;28;19916;-70
2021/01/17 10:55:45;;;;;;;;;;;-0.30;99.90;;;;;;5051656;28;19913;-70
2021/01/17 10:58:22;;;;;;;;;;;-0.30;99.90;;;;;;5053512;28;19913;-70
2021/01/17 11:00:55;;;;;;;;;;;-0.30;99.90;;;;;;5051652;28;19924;-70
2021/01/17 11:03:33;;;;;;;;;;;-0.20;99.90;;;;;;5051845;28;20381;-70
2021/01/17 11:06:06;;;;;;;;;;;-0.20;99.90;;;;;;5052056;28;20286;-70
2021/01/17 11:08:33;;;;;;;;;;;-0.30;99.90;;;;;;5052337;28;19915;-70
2021/01/17 11:10:59;;;;;;;;;;;-0.30;99.90;;;;;;5053390;28;19905;-70
2021/01/17 11:13:25;;;;;;;;;;;-0.30;99.90;;;;;;5053651;28;19954;-70
2021/01/17 11:15:50;;;;;;;;;;;-0.30;99.90;;;;;;5052280;28;20377;-70
2021/01/17 11:18:20;;;;;;;;;;;-0.30;99.90;;;;;;5046387;28;19923;-69
2021/01/17 11:20:46;;;;;;;;;;;-0.20;99.90;;;;;;5052716;28;19955;-70
2021/01/17 11:23:12;;;;;;;;;;;-0.30;99.90;;;;;;5052473;28;19905;-70
2021/01/17 11:25:38;;;;;;;;;;;-0.30;99.90;;;;;;5051355;28;19931;-70
2021/01/17 11:28:05;;;;;;;;;;;-0.30;99.90;;;;;;5052542;28;19920;-70
2021/01/17 11:30:31;;;;;;;;;;;-0.30;99.90;;;;;;5052869;28;19912;-70
2021/01/17 11:33:07;;;;;;;;;;;-0.30;99.90;;;;;;5051666;28;19911;-70
2021/01/17 11:35:33;;;;;;;;;;;-0.30;99.90;;;;;;5034798;28;19905;-70
2021/01/17 11:37:59;;;;;;;;;;;-0.30;99.90;;;;;;5053067;28;20003;-80
2021/01/17 11:40:25;;;;;;;;;;;-0.20;99.90;;;;;;5051974;28;20370;-81
2021/01/17 11:42:50;;;;;;;;;;;-0.20;99.90;;;;;;5051395;28;19917;-72
2021/01/17 11:45:17;;;;;;;;;;;-0.10;99.90;;;;;;5052588;28;19936;-71
2021/01/17 11:47:43;;;;;;;;;;;-0.10;99.90;;;;;;5052729;28;20270;-70
2021/01/17 11:50:15;;;;;;;;;;;-0.10;99.90;;;;;;5052973;28;19912;-70
2021/01/17 11:52:43;;;;;;;;;;;0.00;99.90;;;;;;5052815;28;20007;-70
2021/01/17 11:55:09;;;;;;;;;;;0.00;99.90;;;;;;5052931;28;19913;-70
2021/01/17 11:57:35;;;;;;;;;;;0.00;99.90;;;;;;5051810;28;19919;-71
2021/01/17 12:00:05;;;;;;;;;;;0.00;99.90;;;;;;5050689;28;19924;-70
2021/01/17 12:02:38;;;;;;;;;;;0.10;99.90;;;;;;5047007;28;19921;-71
2021/01/17 12:05:04;;;;;;;;;;;0.10;99.90;;;;;;5052270;28;19909;-70
2021/01/17 12:07:30;;;;;;;;;;;0.10;99.90;;;;;;5052485;28;19913;-71
2021/01/17 12:10:05;;;;;;;;;;;0.20;99.90;;;;;;5052129;28;19908;-71
2021/01/17 12:12:35;;;;;;;;;;;0.10;99.90;;;;;;5051922;28;19917;-70
2021/01/17 12:15:04;;;;;;;;;;;0.10;99.90;;;;;;5050912;28;19917;-70
2021/01/17 12:17:30;;;;;;;;;;;0.10;99.90;;;;;;5050774;28;19916;-71
2021/01/17 12:19:56;;;;;;;;;;;0.10;99.90;;;;;;5052001;28;19947;-70
2021/01/17 12:22:22;;;;;;;;;;;0.10;99.90;;;;;;5052120;28;20315;-70
2021/01/17 12:24:48;;;;;;;;;;;0.10;99.90;;;;;;5050873;28;20373;-70
2021/01/17 12:27:14;;;;;;;;;;;0.10;99.90;;;;;;5050906;28;20016;-70
2021/01/17 12:29:40;;;;;;;;;;;0.10;99.90;;;;;;5051076;28;19956;-71
2021/01/17 12:32:06;;;;;;;;;;;0.10;99.90;;;;;;5051259;28;19966;-70
2021/01/17 12:34:32;;;;;;;;;;;0.10;99.90;;;;;;5049227;28;19920;-70
2021/01/17 12:36:58;;;;;;;;;;;0.10;99.90;;;;;;5051961;28;19916;-70
2021/01/17 12:39:24;;;;;;;;;;;0.10;99.90;;;;;;5051380;28;19940;-70
2021/01/17 12:41:51;;;;;;;;;;;0.10;99.90;;;;;;5051059;28;19960;-70
2021/01/17 12:44:18;;;;;;;;;;;0.10;99.90;;;;;;5051368;28;20285;-70
2021/01/17 12:46:44;;;;;;;;;;;0.10;99.90;;;;;;5050049;28;19920;-70
2021/01/17 12:49:10;;;;;;;;;;;0.10;99.90;;;;;;5051720;28;19909;-70
2021/01/17 12:51:36;;;;;;;;;;;0.10;99.90;;;;;;5050391;28;19923;-70
2021/01/17 12:54:02;;;;;;;;;;;0.10;99.90;;;;;;5051602;28;20361;-70
2021/01/17 12:56:28;;;;;;;;;;;0.20;99.90;;;;;;5050474;28;19909;-70
2021/01/17 12:58:54;;;;;;;;;;;0.20;99.90;;;;;;5050069;28;21582;-70
2021/01/17 13:01:20;;;;;;;;;;;0.10;99.90;;;;;;5054169;28;19955;-70
2021/01/17 13:03:46;;;;;;;;;;;0.10;99.90;;;;;;5050864;28;19917;-70
2021/01/17 13:06:12;;;;;;;;;;;0.10;99.90;;;;;;5050652;28;20020;-70
2021/01/17 13:08:38;;;;;;;;;;;0.20;99.90;;;;;;5051680;28;19912;-70
2021/01/17 13:11:04;;;;;;;;;;;0.10;99.90;;;;;;5059168;28;19912;-70
2021/01/17 13:13:31;;;;;;;;;;;0.10;99.90;;;;;;5054558;28;19916;-70
2021/01/17 13:15:57;;;;;;;;;;;0.10;99.90;;;;;;5054883;28;19916;-70
2021/01/17 13:18:23;;;;;;;;;;;0.00;99.90;;;;;;5054145;28;19913;-71
2021/01/17 13:20:49;;;;;;;;;;;0.00;99.90;;;;;;5054421;28;19916;-73
2021/01/17 13:23:15;;;;;;;;;;;0.00;99.90;;;;;;5053740;28;20267;-70
2021/01/17 13:25:41;;;;;;;;;;;0.00;99.90;;;;;;5054292;28;19917;-69
2021/01/17 13:28:07;;;;;;;;;;;0.00;99.90;;;;;;5055158;28;19927;-71
2021/01/17 13:30:34;;;;;;;;;;;0.00;99.90;;;;;;5055490;28;20358;-71
2021/01/17 13:33:01;;;;;;;;;;;0.00;99.90;;;;;;5053764;28;19905;-71
2021/01/17 13:35:27;;;;;;;;;;;0.00;99.90;;;;;;5055225;28;20277;-71
2021/01/17 13:37:53;;;;;;;;;;;0.00;99.90;;;;;;5053943;28;20349;-71
2021/01/17 13:40:19;;;;;;;;;;;0.00;99.90;;;;;;5055372;28;19917;-70
2021/01/17 13:42:45;;;;;;;;;;;0.00;99.90;;;;;;5053373;28;19908;-70
2021/01/17 13:45:11;;;;;;;;;;;0.00;99.90;;;;;;5055115;28;19979;-71
2021/01/17 13:47:39;;;;;;;;;;;0.00;99.90;;;;;;5054931;28;19913;-71
2021/01/17 13:50:05;;;;;;;;;;;0.00;99.90;;;;;;5053908;28;19912;-70
2021/01/17 13:52:31;;;;;;;;;;;0.00;99.90;;;;;;5054927;28;19908;-70
2021/01/17 13:54:57;;;;;;;;;;;0.10;99.90;;;;;;5055072;28;19967;-70
2021/01/17 13:57:24;;;;;;;;;;;0.00;99.90;;;;;;5053023;28;19931;-70
2021/01/17 13:59:51;;;;;;;;;;;0.00;99.90;;;;;;5053707;28;19905;-71
2021/01/17 14:02:16;;;;;;;;;;;0.00;99.90;;;;;;5054405;28;19919;-70
2021/01/17 14:04:42;;;;;;;;;;;0.00;99.90;;;;;;5054795;28;20346;-70
2021/01/17 14:07:09;;;;;;;;;;;0.10;99.90;;;;;;5054098;28;20000;-70
2021/01/17 14:09:35;;;;;;;;;;;0.10;99.90;;;;;;5055172;28;19909;-71
2021/01/17 14:12:08;;;;;;;;;;;0.10;99.90;;;;;;5054680;28;20358;-70
2021/01/17 14:14:34;;;;;;;;;;;0.10;99.90;;;;;;5054698;28;19923;-71
2021/01/17 14:17:00;;;;;;;;;;;0.10;99.90;;;;;;5054348;28;19909;-70
2021/01/17 14:19:26;;;;;;;;;;;0.10;99.90;;;;;;5055941;28;19912;-71
2021/01/17 14:21:52;;;;;;;;;;;0.10;99.90;;;;;;5057191;28;19928;-71